createdAt,value
2018-11-26T00:00:50.672Z,99.99
2018-11-26T00:01:52.006Z,99.99
2018-11-26T00:02:53.373Z,99.99
2018-11-26T00:03:54.746Z,99.99
2018-11-26T00:04:56.107Z,99.99
2018-11-26T00:05:57.477Z,99.99
2018-11-26T00:06:58.845Z,99.99
2018-11-26T00:08:00.215Z,99.99
2018-11-26T00:09:01.587Z,99.99
2018-11-26T00:10:02.954Z,99.99
2018-11-26T00:11:04.313Z,99.99
2018-11-26T00:12:05.687Z,99.99
2018-11-26T00:13:07.060Z,99.99
2018-11-26T00:14:08.430Z,99.99
2018-11-26T00:15:09.798Z,99.99
2018-11-26T00:16:11.160Z,99.99
2018-11-26T00:17:12.537Z,99.99
2018-11-26T00:18:13.901Z,99.99
2018-11-26T00:19:15.270Z,99.99
2018-11-26T00:20:16.638Z,99.99
2018-11-26T00:21:18.015Z,99.99
2018-11-26T00:22:19.378Z,99.99
2018-11-26T00:23:20.744Z,99.99
2018-11-26T00:24:22.114Z,99.99
2018-11-26T00:25:23.480Z,99.99
2018-11-26T00:26:24.846Z,99.99
2018-11-26T00:27:26.222Z,99.99
2018-11-26T00:28:27.591Z,99.99
2018-11-26T00:29:28.967Z,99.99
2018-11-26T00:30:30.334Z,99.99
2018-11-26T00:31:31.707Z,99.99
2018-11-26T00:32:33.074Z,99.99
2018-11-26T00:33:34.437Z,99.99
2018-11-26T00:34:35.807Z,99.99
2018-11-26T00:35:37.179Z,99.99
2018-11-26T00:36:38.544Z,99.99
2018-11-26T00:37:39.916Z,99.99
2018-11-26T00:38:41.292Z,99.99
2018-11-26T00:39:42.661Z,99.99
2018-11-26T00:40:44.034Z,99.99
2018-11-26T00:41:45.412Z,99.99
2018-11-26T00:42:46.779Z,99.99
2018-11-26T00:43:48.145Z,99.99
2018-11-26T00:44:49.510Z,99.99
2018-11-26T00:45:50.884Z,99.99
2018-11-26T00:46:52.250Z,99.99
2018-11-26T00:47:53.626Z,99.99
2018-11-26T00:48:54.998Z,99.99
2018-11-26T00:49:56.382Z,99.99
2018-11-26T00:50:57.747Z,99.99
2018-11-26T00:51:59.118Z,99.99
2018-11-26T00:53:00.488Z,99.99
2018-11-26T00:54:01.853Z,99.99
2018-11-26T00:55:03.224Z,99.99
2018-11-26T00:56:05.165Z,99.99
2018-11-26T00:57:06.541Z,99.99
2018-11-26T00:58:07.914Z,99.99
2018-11-26T00:59:09.281Z,99.99
2018-11-26T01:00:10.655Z,99.99
2018-11-26T01:01:12.023Z,99.99
2018-11-26T01:02:13.394Z,99.99
2018-11-26T01:03:14.759Z,99.99
2018-11-26T01:04:16.130Z,99.99
2018-11-26T01:05:17.503Z,99.99
2018-11-26T01:06:18.865Z,99.99
2018-11-26T01:07:20.240Z,99.99
2018-11-26T01:08:21.614Z,99.99
2018-11-26T01:09:22.985Z,99.99
2018-11-26T01:10:24.355Z,99.99
2018-11-26T01:11:25.725Z,99.99
2018-11-26T01:12:27.104Z,99.99
2018-11-26T01:13:28.472Z,99.99
2018-11-26T01:14:29.839Z,99.99
2018-11-26T01:15:31.205Z,99.99
2018-11-26T01:16:32.576Z,99.99
2018-11-26T01:17:33.947Z,99.99
2018-11-26T01:18:35.310Z,99.99
2018-11-26T01:19:36.684Z,99.99
2018-11-26T01:20:38.054Z,99.99
2018-11-26T01:21:39.421Z,99.99
2018-11-26T01:22:40.793Z,99.99
2018-11-26T01:23:42.160Z,99.99
2018-11-26T01:24:43.537Z,99.99
2018-11-26T01:25:44.909Z,99.99
2018-11-26T01:26:46.273Z,99.99
2018-11-26T01:27:47.648Z,99.99
2018-11-26T01:28:49.013Z,99.99
2018-11-26T01:29:50.382Z,99.99
2018-11-26T01:30:51.755Z,99.99
2018-11-26T01:31:53.121Z,99.99
2018-11-26T01:32:54.492Z,99.99
2018-11-26T01:33:55.867Z,99.99
2018-11-26T01:34:57.232Z,99.99
2018-11-26T01:35:58.599Z,99.99
2018-11-26T01:36:59.976Z,99.99
2018-11-26T01:38:01.346Z,99.99
2018-11-26T01:39:02.714Z,99.99
2018-11-26T01:40:04.086Z,99.99
2018-11-26T01:41:05.451Z,99.99
2018-11-26T01:42:06.814Z,99.99
2018-11-26T01:43:08.181Z,99.99
2018-11-26T01:44:09.556Z,99.99
2018-11-26T01:45:10.927Z,99.99
2018-11-26T01:46:12.306Z,99.99
2018-11-26T01:47:13.683Z,99.99
2018-11-26T01:48:15.050Z,99.99
2018-11-26T01:49:16.409Z,99.99
2018-11-26T01:50:17.792Z,99.99
2018-11-26T01:51:19.157Z,99.99
2018-11-26T01:52:20.529Z,99.99
2018-11-26T01:53:21.897Z,99.99
2018-11-26T01:54:23.265Z,99.99
2018-11-26T01:55:24.634Z,99.99
2018-11-26T01:56:25.999Z,99.99
2018-11-26T01:57:27.373Z,99.99
2018-11-26T01:58:28.739Z,99.99
2018-11-26T01:59:30.107Z,99.99
2018-11-26T02:00:31.473Z,99.99
2018-11-26T02:01:32.845Z,99.99
2018-11-26T02:02:34.211Z,99.99
2018-11-26T02:03:35.589Z,99.99
2018-11-26T02:04:36.961Z,99.99
2018-11-26T02:05:38.330Z,99.99
2018-11-26T02:06:39.696Z,99.99
2018-11-26T02:07:41.066Z,99.99
2018-11-26T02:08:42.436Z,99.99
2018-11-26T02:09:43.802Z,99.99
2018-11-26T02:10:45.172Z,99.99
2018-11-26T02:11:46.539Z,99.99
2018-11-26T02:12:47.911Z,99.99
2018-11-26T02:13:49.283Z,99.99
2018-11-26T02:14:50.652Z,99.99
2018-11-26T02:15:52.778Z,99.99
2018-11-26T02:16:54.144Z,99.99
2018-11-26T02:17:55.518Z,99.99
2018-11-26T02:18:56.888Z,99.99
2018-11-26T02:19:58.255Z,99.99
2018-11-26T02:20:59.627Z,99.99
2018-11-26T02:22:00.997Z,99.99
2018-11-26T02:23:02.370Z,99.99
2018-11-26T02:24:03.741Z,99.99
2018-11-26T02:25:05.117Z,99.99
2018-11-26T02:26:06.481Z,99.99
2018-11-26T02:27:07.848Z,99.99
2018-11-26T02:28:09.219Z,99.99
2018-11-26T02:29:10.591Z,99.99
2018-11-26T02:30:11.961Z,99.99
2018-11-26T02:31:13.336Z,99.99
2018-11-26T02:32:14.709Z,99.99
2018-11-26T02:33:16.072Z,99.99
2018-11-26T02:34:17.440Z,99.99
2018-11-26T02:35:18.806Z,99.99
2018-11-26T02:36:20.186Z,99.99
2018-11-26T02:37:21.552Z,99.99
2018-11-26T02:38:22.920Z,99.99
2018-11-26T02:39:24.292Z,99.99
2018-11-26T02:40:25.660Z,99.99
2018-11-26T02:41:27.030Z,99.99
2018-11-26T02:42:28.404Z,99.99
2018-11-26T02:43:29.776Z,99.99
2018-11-26T02:44:31.144Z,99.99
2018-11-26T02:45:32.514Z,99.99
2018-11-26T02:46:33.877Z,99.99
2018-11-26T02:47:35.247Z,99.99
2018-11-26T02:48:36.612Z,99.99
2018-11-26T02:49:37.987Z,99.99
2018-11-26T02:50:39.355Z,99.99
2018-11-26T02:51:40.727Z,99.99
2018-11-26T02:52:42.105Z,99.99
2018-11-26T02:53:43.469Z,99.99
2018-11-26T02:54:44.840Z,99.99
2018-11-26T02:55:46.209Z,99.99
2018-11-26T02:56:47.585Z,99.99
2018-11-26T02:57:48.959Z,99.99
2018-11-26T02:58:50.333Z,99.99
2018-11-26T02:59:51.697Z,99.99
2018-11-26T03:00:53.066Z,99.99
2018-11-26T03:01:54.437Z,99.99
2018-11-26T03:02:55.805Z,99.99
2018-11-26T03:03:57.173Z,99.99
2018-11-26T03:04:58.538Z,99.99
2018-11-26T03:05:59.908Z,99.99
2018-11-26T03:07:01.286Z,99.99
2018-11-26T03:08:02.656Z,99.99
2018-11-26T03:09:04.020Z,99.99
2018-11-26T03:10:05.386Z,99.99
2018-11-26T03:11:06.753Z,99.99
2018-11-26T03:12:08.121Z,99.99
2018-11-26T03:13:09.490Z,99.99
2018-11-26T03:14:10.869Z,99.99
2018-11-26T03:15:12.237Z,99.99
2018-11-26T03:16:13.606Z,99.99
2018-11-26T03:17:14.986Z,99.99
2018-11-26T03:18:16.371Z,99.99
2018-11-26T03:19:17.719Z,99.99
2018-11-26T03:20:19.102Z,99.99
2018-11-26T03:21:20.466Z,99.99
2018-11-26T03:22:21.832Z,99.99
2018-11-26T03:23:23.203Z,99.99
2018-11-26T03:24:24.571Z,99.99
2018-11-26T03:25:25.942Z,99.99
2018-11-26T03:26:27.315Z,99.99
2018-11-26T03:27:28.683Z,99.99
2018-11-26T03:28:30.052Z,99.99
2018-11-26T03:29:31.427Z,99.99
2018-11-26T03:30:32.796Z,99.99
2018-11-26T03:31:34.162Z,99.99
2018-11-26T03:32:35.528Z,99.99
2018-11-26T03:33:36.892Z,99.99
2018-11-26T03:34:38.258Z,99.99
2018-11-26T03:35:39.632Z,99.99
2018-11-26T03:36:41.004Z,99.99
2018-11-26T03:37:42.373Z,99.99
2018-11-26T03:38:43.755Z,99.99
2018-11-26T03:39:45.119Z,99.99
2018-11-26T03:40:46.491Z,99.99
2018-11-26T03:41:47.856Z,99.99
2018-11-26T03:42:49.253Z,99.99
2018-11-26T03:43:50.599Z,99.99
2018-11-26T03:44:51.970Z,99.99
2018-11-26T03:45:53.341Z,99.99
2018-11-26T03:46:54.705Z,99.99
2018-11-26T03:47:56.071Z,99.99
2018-11-26T03:48:57.441Z,99.99
2018-11-26T03:49:58.809Z,99.99
2018-11-26T03:51:00.181Z,99.99
2018-11-26T03:52:01.557Z,99.99
2018-11-26T03:53:02.924Z,99.99
2018-11-26T03:54:04.301Z,99.99
2018-11-26T03:55:05.674Z,99.99
2018-11-26T03:56:07.036Z,99.99
2018-11-26T03:57:08.408Z,99.99
2018-11-26T03:58:09.772Z,99.99
2018-11-26T03:59:11.147Z,99.99
2018-11-26T04:00:12.512Z,99.99
2018-11-26T04:01:13.879Z,99.99
2018-11-26T04:02:15.246Z,99.99
2018-11-26T04:03:16.621Z,99.99
2018-11-26T04:04:17.989Z,99.99
2018-11-26T04:05:19.359Z,99.99
2018-11-26T04:06:20.728Z,99.99
2018-11-26T04:07:22.137Z,99.99
2018-11-26T04:08:23.475Z,99.99
2018-11-26T04:09:24.849Z,99.99
2018-11-26T04:10:26.214Z,99.99
2018-11-26T04:11:27.579Z,99.99
2018-11-26T04:12:28.947Z,99.99
2018-11-26T04:13:30.321Z,99.99
2018-11-26T04:14:31.695Z,99.99
2018-11-26T04:15:33.064Z,99.99
2018-11-26T04:16:34.429Z,99.99
2018-11-26T04:17:35.795Z,99.99
2018-11-26T04:18:37.169Z,99.99
2018-11-26T04:19:38.542Z,99.99
2018-11-26T04:20:39.912Z,99.99
2018-11-26T04:21:41.275Z,99.99
2018-11-26T04:22:42.650Z,99.99
2018-11-26T04:23:44.013Z,99.99
2018-11-26T04:24:45.382Z,99.99
2018-11-26T04:25:46.743Z,99.99
2018-11-26T04:26:48.111Z,99.99
2018-11-26T04:27:49.480Z,99.99
2018-11-26T04:28:50.853Z,99.99
2018-11-26T04:29:52.214Z,99.99
2018-11-26T04:30:53.595Z,99.99
2018-11-26T04:31:54.964Z,99.99
2018-11-26T04:32:56.326Z,99.99
2018-11-26T04:33:57.692Z,99.99
2018-11-26T04:34:59.074Z,99.99
2018-11-26T04:36:00.441Z,99.99
2018-11-26T04:37:01.803Z,99.99
2018-11-26T04:38:03.171Z,99.99
2018-11-26T04:39:04.545Z,99.99
2018-11-26T04:40:05.909Z,99.99
2018-11-26T04:41:07.277Z,99.99
2018-11-26T04:42:08.649Z,99.99
2018-11-26T04:43:10.017Z,99.99
2018-11-26T04:44:11.389Z,99.99
2018-11-26T04:45:12.754Z,99.99
2018-11-26T04:46:14.123Z,99.99
2018-11-26T04:47:15.486Z,99.99
2018-11-26T04:48:16.859Z,99.99
2018-11-26T04:49:18.231Z,99.99
2018-11-26T04:50:19.600Z,99.99
2018-11-26T04:51:20.964Z,99.99
2018-11-26T04:52:22.346Z,99.99
2018-11-26T04:53:23.711Z,99.99
2018-11-26T04:54:25.080Z,99.99
2018-11-26T04:55:26.446Z,99.99
2018-11-26T04:56:27.812Z,99.99
2018-11-26T04:57:29.185Z,99.99
2018-11-26T04:58:30.555Z,99.99
2018-11-26T04:59:31.928Z,99.99
2018-11-26T05:00:33.296Z,99.99
2018-11-26T05:01:34.664Z,99.99
2018-11-26T05:02:36.037Z,99.99
2018-11-26T05:03:37.397Z,99.99
2018-11-26T05:04:38.766Z,99.99
2018-11-26T05:05:40.133Z,99.99
2018-11-26T05:06:41.504Z,99.99
2018-11-26T05:07:42.869Z,99.99
2018-11-26T05:08:44.239Z,99.99
2018-11-26T05:09:45.599Z,99.99
2018-11-26T05:10:46.975Z,99.99
2018-11-26T05:11:48.347Z,99.99
2018-11-26T05:12:49.723Z,99.99
2018-11-26T05:13:51.087Z,99.99
2018-11-26T05:14:52.453Z,99.99
2018-11-26T05:15:53.821Z,99.99
2018-11-26T05:16:55.192Z,99.99
2018-11-26T05:17:56.555Z,99.99
2018-11-26T05:18:57.931Z,99.99
2018-11-26T05:19:59.292Z,99.99
2018-11-26T05:21:00.658Z,99.99
2018-11-26T05:22:02.034Z,99.99
2018-11-26T05:23:03.396Z,99.99
2018-11-26T05:24:04.771Z,99.99
2018-11-26T05:25:06.140Z,99.99
2018-11-26T05:26:07.508Z,99.99
2018-11-26T05:27:08.878Z,99.99
2018-11-26T05:28:10.252Z,99.99
2018-11-26T05:29:11.618Z,99.99
2018-11-26T05:30:12.989Z,99.99
2018-11-26T05:31:14.356Z,99.99
2018-11-26T05:32:15.728Z,99.99
2018-11-26T05:33:17.090Z,99.99
2018-11-26T05:34:18.462Z,99.99
2018-11-26T05:35:19.834Z,99.99
2018-11-26T05:36:21.207Z,99.99
2018-11-26T05:37:22.573Z,99.99
2018-11-26T05:38:23.939Z,99.99
2018-11-26T05:39:25.317Z,99.99
2018-11-26T05:40:26.681Z,99.99
2018-11-26T05:41:28.047Z,99.99
2018-11-26T05:42:29.414Z,99.99
2018-11-26T05:43:30.795Z,99.99
2018-11-26T05:44:32.163Z,99.99
2018-11-26T05:45:33.530Z,99.99
2018-11-26T05:46:34.905Z,99.99
2018-11-26T05:47:36.267Z,99.99
2018-11-26T05:48:37.636Z,99.99
2018-11-26T05:49:39.012Z,99.99
2018-11-26T05:50:40.382Z,99.99
2018-11-26T05:51:41.753Z,99.99
2018-11-26T05:52:43.120Z,99.99
2018-11-26T05:53:44.490Z,99.99
2018-11-26T05:54:45.858Z,99.99
2018-11-26T05:55:47.228Z,99.99
2018-11-26T05:56:48.600Z,99.99
2018-11-26T05:57:49.973Z,99.99
2018-11-26T05:58:51.345Z,99.99
2018-11-26T05:59:52.706Z,99.99
2018-11-26T06:00:54.076Z,99.99
2018-11-26T06:01:55.443Z,99.99
2018-11-26T06:02:56.814Z,99.99
2018-11-26T06:03:58.181Z,99.99
2018-11-26T06:04:59.549Z,99.99
2018-11-26T06:06:00.919Z,99.99
2018-11-26T06:07:02.298Z,99.99
2018-11-26T06:08:03.669Z,99.99
2018-11-26T06:09:05.041Z,99.99
2018-11-26T06:10:06.409Z,99.99
2018-11-26T06:11:07.769Z,99.99
2018-11-26T06:12:09.144Z,99.99
2018-11-26T06:13:10.510Z,99.99
2018-11-26T06:14:11.892Z,99.99
2018-11-26T06:15:13.247Z,99.99
2018-11-26T06:16:14.620Z,99.99
2018-11-26T06:17:15.990Z,99.99
2018-11-26T06:18:17.364Z,99.99
2018-11-26T06:19:18.736Z,99.99
2018-11-26T06:20:20.101Z,99.99
2018-11-26T06:21:21.471Z,99.99
2018-11-26T06:22:22.844Z,99.99
2018-11-26T06:23:24.214Z,99.99
2018-11-26T06:24:25.584Z,99.99
2018-11-26T06:25:26.959Z,99.99
2018-11-26T06:26:28.324Z,99.99
2018-11-26T06:27:29.696Z,99.99
2018-11-26T06:28:31.071Z,99.99
2018-11-26T06:29:32.438Z,99.99
2018-11-26T06:30:33.806Z,99.99
2018-11-26T06:31:35.177Z,99.99
2018-11-26T06:32:36.546Z,99.99
2018-11-26T06:33:37.915Z,99.99
2018-11-26T06:34:42.521Z,99.99
2018-11-26T06:35:40.615Z,99.99
2018-11-26T06:36:41.989Z,99.99
2018-11-26T06:37:43.361Z,99.99
2018-11-26T06:38:44.729Z,99.99
2018-11-26T06:39:46.102Z,99.99
2018-11-26T06:40:47.468Z,99.99
2018-11-26T06:41:48.840Z,99.99
2018-11-26T06:42:50.216Z,99.99
2018-11-26T06:43:51.578Z,99.99
2018-11-26T06:44:52.946Z,99.99
2018-11-26T06:45:54.310Z,99.99
2018-11-26T06:46:55.686Z,99.99
2018-11-26T06:47:57.055Z,99.99
2018-11-26T06:48:58.423Z,99.99
2018-11-26T06:49:59.794Z,99.99
2018-11-26T06:51:01.166Z,99.99
2018-11-26T06:52:02.533Z,99.99
2018-11-26T06:53:03.905Z,99.99
2018-11-26T06:54:05.274Z,99.99
2018-11-26T06:55:06.646Z,99.99
2018-11-26T06:56:08.031Z,99.99
2018-11-26T06:57:09.392Z,99.99
2018-11-26T06:58:10.776Z,99.99
2018-11-26T06:59:12.139Z,99.99
2018-11-26T07:00:13.509Z,99.99
2018-11-26T07:01:14.883Z,99.99
2018-11-26T07:02:16.251Z,99.99
2018-11-26T07:03:17.625Z,99.99
2018-11-26T07:04:19.007Z,99.99
2018-11-26T07:05:20.375Z,99.99
2018-11-26T07:06:21.749Z,99.99
2018-11-26T07:07:23.119Z,99.99
2018-11-26T07:08:24.492Z,99.99
2018-11-26T07:09:25.873Z,99.99
2018-11-26T07:10:27.235Z,99.99
2018-11-26T07:11:28.607Z,99.99
2018-11-26T07:12:29.980Z,99.99
2018-11-26T07:13:31.348Z,99.99
2018-11-26T07:14:32.724Z,99.99
2018-11-26T07:15:34.097Z,99.99
2018-11-26T07:16:35.467Z,99.99
2018-11-26T07:17:36.836Z,99.99
2018-11-26T07:18:38.209Z,99.99
2018-11-26T07:19:39.584Z,99.99
2018-11-26T07:20:40.955Z,99.99
2018-11-26T07:21:42.323Z,99.99
2018-11-26T07:22:43.698Z,99.99
2018-11-26T07:23:45.071Z,99.99
2018-11-26T07:24:46.442Z,99.99
2018-11-26T07:25:47.813Z,99.99
2018-11-26T07:26:49.183Z,99.99
2018-11-26T07:27:50.554Z,99.99
2018-11-26T07:28:51.929Z,99.99
2018-11-26T07:29:53.304Z,99.99
2018-11-26T07:30:54.695Z,99.99
2018-11-26T07:31:56.045Z,99.99
2018-11-26T07:32:57.414Z,99.99
2018-11-26T07:33:58.787Z,99.99
2018-11-26T07:35:00.156Z,99.99
2018-11-26T07:36:01.533Z,99.99
2018-11-26T07:37:02.911Z,99.99
2018-11-26T07:38:04.282Z,99.99
2018-11-26T07:39:05.657Z,99.99
2018-11-26T07:40:07.026Z,99.99
2018-11-26T07:41:08.406Z,99.99
2018-11-26T07:42:09.779Z,99.99
2018-11-26T07:43:11.149Z,99.99
2018-11-26T07:44:12.525Z,99.99
2018-11-26T07:45:13.899Z,99.99
2018-11-26T07:46:15.277Z,99.99
2018-11-26T07:47:16.646Z,99.99
2018-11-26T07:48:18.014Z,99.99
2018-11-26T07:49:19.390Z,99.99
2018-11-26T07:50:20.762Z,99.99
2018-11-26T07:51:22.136Z,99.99
2018-11-26T07:52:23.508Z,99.99
2018-11-26T07:53:24.919Z,99.99
2018-11-26T07:54:26.262Z,99.99
2018-11-26T07:55:27.633Z,99.99
2018-11-26T07:56:29.014Z,99.99
2018-11-26T07:57:30.389Z,99.99
2018-11-26T07:58:31.755Z,99.99
2018-11-26T07:59:33.135Z,99.99
2018-11-26T08:00:34.503Z,99.99
2018-11-26T08:01:35.880Z,99.99
2018-11-26T08:02:37.252Z,99.99
2018-11-26T08:03:38.636Z,99.99
2018-11-26T08:04:40.895Z,99.99
2018-11-26T08:05:41.323Z,99.99
2018-11-26T08:06:42.699Z,99.99
2018-11-26T08:07:44.075Z,99.99
2018-11-26T08:08:45.441Z,99.99
2018-11-26T08:09:46.810Z,99.99
2018-11-26T08:10:48.186Z,99.99
2018-11-26T08:11:49.556Z,99.99
2018-11-26T08:12:50.928Z,99.99
2018-11-26T08:13:52.294Z,99.99
2018-11-26T08:14:53.668Z,99.99
2018-11-26T08:15:55.042Z,99.99
2018-11-26T08:16:56.416Z,99.99
2018-11-26T08:17:57.798Z,99.99
2018-11-26T08:18:59.172Z,99.99
2018-11-26T08:20:00.549Z,99.99
2018-11-26T08:21:01.934Z,99.99
2018-11-26T08:22:03.291Z,99.99
2018-11-26T08:23:04.666Z,99.99
2018-11-26T08:24:06.042Z,99.99
2018-11-26T08:25:07.416Z,99.99
2018-11-26T08:26:08.789Z,99.99
2018-11-26T08:27:10.168Z,99.99
2018-11-26T08:28:11.538Z,99.99
2018-11-26T08:29:12.913Z,99.99
2018-11-26T08:30:14.326Z,99.99
2018-11-26T08:31:15.659Z,99.99
2018-11-26T08:32:17.035Z,99.99
2018-11-26T08:33:18.409Z,99.99
2018-11-26T08:34:19.785Z,99.99
2018-11-26T08:35:21.159Z,99.99
2018-11-26T08:36:22.537Z,99.99
2018-11-26T08:37:23.908Z,99.99
2018-11-26T08:38:25.289Z,99.99
2018-11-26T08:39:26.664Z,99.99
2018-11-26T08:40:28.055Z,99.99
2018-11-26T08:41:29.406Z,99.99
2018-11-26T08:42:30.788Z,99.99
2018-11-26T08:43:32.158Z,99.99
2018-11-26T08:44:33.534Z,99.99
2018-11-26T08:45:34.904Z,99.99
2018-11-26T08:46:36.284Z,99.99
2018-11-26T08:47:37.660Z,99.99
2018-11-26T08:48:39.028Z,99.99
2018-11-26T08:49:40.411Z,99.99
2018-11-26T08:50:41.782Z,99.99
2018-11-26T08:51:43.161Z,99.99
2018-11-26T08:52:44.538Z,99.99
2018-11-26T08:53:45.921Z,99.99
2018-11-26T08:54:47.301Z,99.99
2018-11-26T08:55:48.675Z,99.99
2018-11-26T08:56:50.051Z,99.99
2018-11-26T08:57:51.418Z,99.99
2018-11-26T08:58:52.803Z,99.99
2018-11-26T08:59:54.177Z,99.99
2018-11-26T09:00:55.550Z,99.99
2018-11-26T09:01:56.923Z,99.99
2018-11-26T09:02:58.304Z,99.99
2018-11-26T09:03:59.677Z,99.99
2018-11-26T09:05:01.054Z,99.99
2018-11-26T09:06:02.420Z,99.99
2018-11-26T09:07:03.807Z,99.99
2018-11-26T09:08:05.186Z,99.99
2018-11-26T09:09:06.570Z,99.99
2018-11-26T09:10:07.938Z,99.99
2018-11-26T09:11:09.326Z,99.99
2018-11-26T09:12:10.696Z,99.99
2018-11-26T09:13:12.078Z,99.99
2018-11-26T09:14:13.448Z,99.99
2018-11-26T09:15:14.820Z,99.99
2018-11-26T09:16:16.198Z,99.99
2018-11-26T09:17:17.579Z,99.99
2018-11-26T09:18:18.954Z,99.99
2018-11-26T09:19:20.335Z,99.99
2018-11-26T09:20:21.716Z,99.99
2018-11-26T09:21:23.090Z,99.99
2018-11-26T09:22:24.473Z,99.99
2018-11-26T09:23:25.847Z,99.99
2018-11-26T09:24:27.225Z,99.99
2018-11-26T09:25:28.632Z,99.99
2018-11-26T09:26:30.003Z,99.99
2018-11-26T09:27:31.351Z,99.99
2018-11-26T09:28:32.725Z,99.99
2018-11-26T09:29:34.101Z,99.99
2018-11-26T09:30:35.479Z,99.99
2018-11-26T09:31:36.853Z,99.99
2018-11-26T09:32:38.229Z,99.99
2018-11-26T09:33:39.609Z,99.99
2018-11-26T09:34:40.992Z,99.99
2018-11-26T09:35:42.361Z,99.99
2018-11-26T09:36:43.737Z,99.99
2018-11-26T09:37:45.116Z,99.99
2018-11-26T09:38:46.496Z,99.99
2018-11-26T09:39:47.870Z,99.99
2018-11-26T09:40:49.248Z,99.99
2018-11-26T09:41:50.626Z,99.99
2018-11-26T09:42:52.001Z,99.99
2018-11-26T09:43:53.376Z,99.99
2018-11-26T09:44:54.760Z,99.99
2018-11-26T09:45:56.141Z,99.99
2018-11-26T09:46:57.518Z,99.99
2018-11-26T09:47:58.903Z,99.99
2018-11-26T09:49:00.273Z,99.99
2018-11-26T09:50:01.647Z,99.99
2018-11-26T09:51:03.025Z,99.99
2018-11-26T09:52:04.401Z,99.99
2018-11-26T09:53:05.774Z,99.99
2018-11-26T09:54:07.163Z,99.99
2018-11-26T09:55:08.535Z,99.99
2018-11-26T09:56:09.918Z,99.99
2018-11-26T09:57:11.293Z,99.99
2018-11-26T09:58:12.663Z,99.99
2018-11-26T09:59:14.040Z,99.99
2018-11-26T10:00:15.431Z,99.99
2018-11-26T10:01:16.812Z,99.99
2018-11-26T10:02:18.191Z,99.99
2018-11-26T10:03:20.090Z,99.99
2018-11-26T10:04:21.467Z,99.99
2018-11-26T10:05:22.845Z,99.99
2018-11-26T10:06:24.218Z,99.99
2018-11-26T10:07:25.598Z,99.99
2018-11-26T10:08:26.973Z,99.99
2018-11-26T10:09:28.351Z,99.99
2018-11-26T10:10:29.726Z,99.99
2018-11-26T10:11:31.104Z,99.99
2018-11-26T10:12:32.478Z,99.99
2018-11-26T10:13:33.858Z,99.99
2018-11-26T10:14:35.234Z,99.99
2018-11-26T10:15:36.612Z,99.99
2018-11-26T10:16:37.986Z,99.99
2018-11-26T10:17:39.365Z,99.99
2018-11-26T10:18:40.743Z,99.99
2018-11-26T10:19:42.121Z,99.99
2018-11-26T10:20:43.497Z,99.99
2018-11-26T10:21:44.874Z,99.99
2018-11-26T10:22:46.253Z,99.99
2018-11-26T10:23:47.634Z,99.99
2018-11-26T10:24:50.216Z,99.99
2018-11-26T10:25:50.360Z,99.26
2018-11-26T10:26:51.749Z,99.26
2018-11-26T10:27:53.117Z,97.97
2018-11-26T10:28:54.500Z,98.07
2018-11-26T10:29:55.887Z,96.08
2018-11-26T10:30:57.267Z,96.08
2018-11-26T10:31:58.643Z,97.07
2018-11-26T10:33:00.033Z,96.79
2018-11-26T10:34:01.414Z,97.27
2018-11-26T10:35:02.794Z,98.12
2018-11-26T10:36:04.167Z,98.02
2018-11-26T10:37:05.546Z,97.36
2018-11-26T10:38:06.921Z,97.83
2018-11-26T10:39:08.308Z,99.11
2018-11-26T10:40:09.682Z,99.68
2018-11-26T10:41:11.065Z,99.99
2018-11-26T10:42:12.443Z,99.99
2018-11-26T10:43:13.828Z,99.99
2018-11-26T10:44:15.217Z,99.07
2018-11-26T10:45:16.594Z,98.35
2018-11-26T10:46:17.971Z,99.02
2018-11-26T10:47:19.357Z,99.87
2018-11-26T10:48:20.752Z,99.99
2018-11-26T10:49:22.109Z,99.30
2018-11-26T10:50:23.493Z,99.99
2018-11-26T10:51:24.877Z,99.99
2018-11-26T10:52:26.258Z,99.99
2018-11-26T10:53:27.639Z,99.99
2018-11-26T10:54:29.005Z,99.99
2018-11-26T10:55:30.389Z,99.99
2018-11-26T10:56:32.184Z,99.99
2018-11-26T10:57:33.103Z,99.99
2018-11-26T10:58:34.479Z,99.99
2018-11-26T10:59:35.853Z,99.99
2018-11-26T11:00:37.233Z,99.99
2018-11-26T11:01:38.625Z,99.99
2018-11-26T11:02:40.002Z,99.99
2018-11-26T11:03:41.457Z,99.99
2018-11-26T11:04:47.569Z,99.99
2018-11-26T11:05:44.056Z,99.99
2018-11-26T11:06:45.430Z,99.99
2018-11-26T11:07:46.808Z,99.99
2018-11-26T11:08:48.180Z,99.99
2018-11-26T11:09:49.560Z,99.99
2018-11-26T11:10:50.936Z,99.99
2018-11-26T11:11:52.310Z,99.99
2018-11-26T11:12:53.689Z,99.99
2018-11-26T11:13:55.077Z,99.99
2018-11-26T11:14:56.451Z,99.99
2018-11-26T11:15:57.829Z,99.99
2018-11-26T11:16:59.207Z,99.99
2018-11-26T11:18:00.584Z,99.99
2018-11-26T11:19:01.965Z,99.99
2018-11-26T11:20:03.339Z,99.99
2018-11-26T11:21:04.717Z,99.99
2018-11-26T11:22:06.091Z,99.99
2018-11-26T11:23:07.473Z,99.99
2018-11-26T11:24:08.846Z,99.99
2018-11-26T11:25:10.225Z,99.99
2018-11-26T11:26:11.654Z,99.99
2018-11-26T11:27:12.991Z,99.99
2018-11-26T11:28:14.371Z,99.99
2018-11-26T11:29:15.745Z,99.99
2018-11-26T11:30:17.123Z,99.99
2018-11-26T11:31:18.496Z,99.99
2018-11-26T11:32:19.883Z,99.99
2018-11-26T11:34:01.209Z,99.99
2018-11-26T11:35:02.589Z,99.99
2018-11-26T11:36:03.970Z,99.99
2018-11-26T11:37:05.355Z,99.99
2018-11-26T11:38:06.728Z,99.99
2018-11-26T11:39:08.105Z,99.99
2018-11-26T11:40:09.489Z,99.99
2018-11-26T11:41:10.881Z,99.99
2018-11-26T11:42:12.252Z,99.99
2018-11-26T11:43:13.629Z,99.99
2018-11-26T11:44:15.004Z,99.99
2018-11-26T11:45:16.383Z,99.99
2018-11-26T11:46:17.760Z,99.99
2018-11-26T11:47:19.142Z,99.99
2018-11-26T11:48:20.517Z,99.99
2018-11-26T11:49:21.898Z,99.99
2018-11-26T11:50:23.262Z,99.99
2018-11-26T11:51:24.639Z,99.99
2018-11-26T11:52:26.008Z,99.99
2018-11-26T11:53:27.378Z,99.99
2018-11-26T11:54:28.758Z,99.99
2018-11-26T11:55:30.132Z,99.99
2018-11-26T11:56:31.512Z,99.99
2018-11-26T11:57:32.887Z,99.99
2018-11-26T11:58:34.265Z,99.99
2018-11-26T11:59:35.628Z,99.99
2018-11-26T12:00:37.014Z,99.99
2018-11-26T12:01:38.387Z,98.78
2018-11-26T12:02:39.763Z,97.74
2018-11-26T12:03:41.149Z,98.40
2018-11-26T12:04:42.520Z,98.87
2018-11-26T12:05:43.899Z,99.99
2018-11-26T12:06:45.277Z,99.99
2018-11-26T12:07:46.649Z,99.99
2018-11-26T12:08:48.031Z,99.99
2018-11-26T12:09:49.407Z,99.99
2018-11-26T12:10:50.782Z,99.82
2018-11-26T12:11:52.166Z,99.06
2018-11-26T12:12:53.545Z,99.35
2018-11-26T12:13:54.930Z,99.16
2018-11-26T12:14:56.300Z,99.39
2018-11-26T12:15:57.671Z,99.49
2018-11-26T12:16:59.045Z,99.99
2018-11-26T12:18:00.431Z,99.99
2018-11-26T12:19:01.802Z,99.87
2018-11-26T12:20:03.181Z,99.58
2018-11-26T12:21:04.556Z,98.82
2018-11-26T12:22:05.934Z,98.63
2018-11-26T12:23:07.308Z,97.78
2018-11-26T12:24:08.694Z,98.44
2018-11-26T12:25:10.064Z,97.74
2018-11-26T12:26:11.451Z,97.83
2018-11-26T12:27:12.821Z,98.68
2018-11-26T12:28:14.201Z,97.64
2018-11-26T12:29:15.578Z,97.17
2018-11-26T12:30:16.972Z,96.59
2018-11-26T12:31:18.342Z,96.59
2018-11-26T12:32:19.714Z,96.50
2018-11-26T12:33:21.135Z,96.69
2018-11-26T12:34:22.477Z,94.79
2018-11-26T12:35:23.849Z,95.46
2018-11-26T12:36:25.233Z,95.17
2018-11-26T12:37:26.609Z,94.42
2018-11-26T12:38:27.981Z,94.42
2018-11-26T12:39:29.373Z,95.17
2018-11-26T12:40:30.759Z,94.13
2018-11-26T12:41:32.131Z,93.37
2018-11-26T12:42:33.507Z,94.13
2018-11-26T12:43:34.888Z,94.51
2018-11-26T12:44:36.266Z,94.70
2018-11-26T12:45:37.642Z,94.79
2018-11-26T12:46:39.029Z,94.70
2018-11-26T12:47:40.398Z,95.27
2018-11-26T12:48:41.786Z,95.65
2018-11-26T12:49:43.163Z,95.65
2018-11-26T12:50:44.537Z,95.55
2018-11-26T12:51:45.916Z,94.98
2018-11-26T12:52:47.294Z,94.60
2018-11-26T12:53:48.668Z,94.70
2018-11-26T12:54:50.048Z,95.46
2018-11-26T12:55:51.422Z,95.07
2018-11-26T12:56:52.816Z,94.51
2018-11-26T12:57:54.177Z,95.27
2018-11-26T12:58:55.563Z,95.36
2018-11-26T12:59:56.939Z,95.65
2018-11-26T13:00:58.314Z,95.07
2018-11-26T13:01:59.676Z,95.46
2018-11-26T13:03:01.069Z,95.22
2018-11-26T13:04:02.441Z,95.50
2018-11-26T13:05:03.817Z,95.27
2018-11-26T13:06:05.195Z,96.31
2018-11-26T13:07:06.574Z,96.78
2018-11-26T13:08:07.947Z,95.93
2018-11-26T13:09:09.324Z,95.84
2018-11-26T13:10:10.708Z,96.31
2018-11-26T13:11:12.086Z,95.93